sensor_id;sensor_type;location;lat;lon;timestamp;P1;durP1;ratioP1;P2;durP2;ratioP2
57828;SDS011;43657;52.698;6.314;2023-08-08T00:01:12;15.85;;;14.10;;
57828;SDS011;43657;52.698;6.314;2023-08-08T00:03:37;17.67;;;15.95;;
57828;SDS011;43657;52.698;6.314;2023-08-08T00:06:03;17.45;;;15.75;;
57828;SDS011;43657;52.698;6.314;2023-08-08T00:08:29;19.95;;;17.95;;
57828;SDS011;43657;52.698;6.314;2023-08-08T00:10:54;19.02;;;16.50;;
57828;SDS011;43657;52.698;6.314;2023-08-08T00:13:20;20.48;;;18.27;;
57828;SDS011;43657;52.698;6.314;2023-08-08T00:15:45;19.13;;;17.33;;
57828;SDS011;43657;52.698;6.314;2023-08-08T00:18:11;21.55;;;19.25;;
57828;SDS011;43657;52.698;6.314;2023-08-08T00:20:36;20.75;;;18.55;;
57828;SDS011;43657;52.698;6.314;2023-08-08T00:23:02;19.63;;;17.63;;
57828;SDS011;43657;52.698;6.314;2023-08-08T00:25:28;21.65;;;18.50;;
57828;SDS011;43657;52.698;6.314;2023-08-08T00:27:54;19.58;;;17.67;;
57828;SDS011;43657;52.698;6.314;2023-08-08T00:30:19;20.35;;;18.27;;
57828;SDS011;43657;52.698;6.314;2023-08-08T00:32:45;19.02;;;17.20;;
57828;SDS011;43657;52.698;6.314;2023-08-08T00:35:11;20.65;;;18.48;;
57828;SDS011;43657;52.698;6.314;2023-08-08T00:37:36;18.88;;;17.10;;
57828;SDS011;43657;52.698;6.314;2023-08-08T00:40:02;20.33;;;17.35;;
57828;SDS011;43657;52.698;6.314;2023-08-08T00:42:28;21.10;;;18.73;;
57828;SDS011;43657;52.698;6.314;2023-08-08T00:44:54;18.92;;;17.02;;
57828;SDS011;43657;52.698;6.314;2023-08-08T00:47:26;21.13;;;18.80;;
57828;SDS011;43657;52.698;6.314;2023-08-08T00:49:52;22.08;;;18.40;;
57828;SDS011;43657;52.698;6.314;2023-08-08T00:52:18;20.17;;;18.08;;
57828;SDS011;43657;52.698;6.314;2023-08-08T00:54:44;18.48;;;16.75;;
57828;SDS011;43657;52.698;6.314;2023-08-08T00:57:10;22.17;;;18.90;;
57828;SDS011;43657;52.698;6.314;2023-08-08T00:59:36;17.13;;;15.32;;
57828;SDS011;43657;52.698;6.314;2023-08-08T01:02:01;25.85;;;19.67;;
57828;SDS011;43657;52.698;6.314;2023-08-08T01:04:27;20.23;;;17.45;;
57828;SDS011;43657;52.698;6.314;2023-08-08T01:09:48;18.40;;;16.60;;
57828;SDS011;43657;52.698;6.314;2023-08-08T01:12:22;19.13;;;17.10;;
57828;SDS011;43657;52.698;6.314;2023-08-08T01:14:49;21.67;;;18.00;;
57828;SDS011;43657;52.698;6.314;2023-08-08T01:17:15;21.75;;;17.88;;
57828;SDS011;43657;52.698;6.314;2023-08-08T01:19:42;24.13;;;18.67;;
57828;SDS011;43657;52.698;6.314;2023-08-08T01:22:09;21.98;;;18.73;;
57828;SDS011;43657;52.698;6.314;2023-08-08T01:24:47;16.80;;;15.02;;
57828;SDS011;43657;52.698;6.314;2023-08-08T01:27:13;20.65;;;18.42;;
57828;SDS011;43657;52.698;6.314;2023-08-08T01:29:39;20.23;;;17.10;;
57828;SDS011;43657;52.698;6.314;2023-08-08T01:32:06;21.38;;;17.88;;
57828;SDS011;43657;52.698;6.314;2023-08-08T01:34:34;19.67;;;16.95;;
57828;SDS011;43657;52.698;6.314;2023-08-08T01:37:11;18.90;;;16.85;;
57828;SDS011;43657;52.698;6.314;2023-08-08T01:39:42;23.13;;;18.77;;
57828;SDS011;43657;52.698;6.314;2023-08-08T01:42:11;18.95;;;16.85;;
57828;SDS011;43657;52.698;6.314;2023-08-08T01:44:39;26.08;;;20.55;;
57828;SDS011;43657;52.698;6.314;2023-08-08T01:47:07;20.52;;;16.60;;
57828;SDS011;43657;52.698;6.314;2023-08-08T01:49:33;24.60;;;19.35;;
57828;SDS011;43657;52.698;6.314;2023-08-08T01:51:59;31.45;;;22.63;;
57828;SDS011;43657;52.698;6.314;2023-08-08T01:54:24;21.65;;;19.30;;
57828;SDS011;43657;52.698;6.314;2023-08-08T01:56:50;21.30;;;18.80;;
57828;SDS011;43657;52.698;6.314;2023-08-08T01:59:16;30.65;;;21.60;;
57828;SDS011;43657;52.698;6.314;2023-08-08T02:01:41;29.45;;;23.10;;
57828;SDS011;43657;52.698;6.314;2023-08-08T02:04:07;22.38;;;19.90;;
57828;SDS011;43657;52.698;6.314;2023-08-08T02:06:33;26.85;;;21.65;;
57828;SDS011;43657;52.698;6.314;2023-08-08T02:08:58;23.73;;;21.15;;
57828;SDS011;43657;52.698;6.314;2023-08-08T02:11:24;28.90;;;22.25;;
57828;SDS011;43657;52.698;6.314;2023-08-08T02:13:49;23.33;;;19.65;;
57828;SDS011;43657;52.698;6.314;2023-08-08T02:16:15;29.17;;;20.92;;
57828;SDS011;43657;52.698;6.314;2023-08-08T02:18:40;33.38;;;23.85;;
57828;SDS011;43657;52.698;6.314;2023-08-08T02:21:07;32.92;;;22.90;;
57828;SDS011;43657;52.698;6.314;2023-08-08T02:23:33;25.73;;;19.77;;
57828;SDS011;43657;52.698;6.314;2023-08-08T02:25:59;27.08;;;20.92;;
57828;SDS011;43657;52.698;6.314;2023-08-08T02:28:25;30.83;;;24.05;;
57828;SDS011;43657;52.698;6.314;2023-08-08T02:30:50;31.17;;;23.33;;
57828;SDS011;43657;52.698;6.314;2023-08-08T02:33:16;39.95;;;24.58;;
57828;SDS011;43657;52.698;6.314;2023-08-08T02:35:42;26.35;;;20.73;;
57828;SDS011;43657;52.698;6.314;2023-08-08T02:38:07;27.10;;;22.33;;
57828;SDS011;43657;52.698;6.314;2023-08-08T02:40:33;36.60;;;24.10;;
57828;SDS011;43657;52.698;6.314;2023-08-08T02:42:58;25.67;;;20.85;;
57828;SDS011;43657;52.698;6.314;2023-08-08T02:45:24;35.63;;;24.58;;
57828;SDS011;43657;52.698;6.314;2023-08-08T02:47:50;31.42;;;22.13;;
57828;SDS011;43657;52.698;6.314;2023-08-08T02:50:15;35.60;;;24.67;;
57828;SDS011;43657;52.698;6.314;2023-08-08T02:52:41;25.25;;;21.35;;
57828;SDS011;43657;52.698;6.314;2023-08-08T02:55:07;28.30;;;20.02;;
57828;SDS011;43657;52.698;6.314;2023-08-08T02:57:33;25.80;;;19.63;;
57828;SDS011;43657;52.698;6.314;2023-08-08T02:59:59;26.80;;;19.55;;
57828;SDS011;43657;52.698;6.314;2023-08-08T03:02:24;22.65;;;18.58;;
57828;SDS011;43657;52.698;6.314;2023-08-08T03:04:50;36.83;;;22.73;;
57828;SDS011;43657;52.698;6.314;2023-08-08T03:07:16;28.67;;;20.15;;
57828;SDS011;43657;52.698;6.314;2023-08-08T03:09:41;31.17;;;20.15;;
57828;SDS011;43657;52.698;6.314;2023-08-08T03:12:07;26.75;;;19.55;;
57828;SDS011;43657;52.698;6.314;2023-08-08T03:14:33;27.08;;;18.85;;
57828;SDS011;43657;52.698;6.314;2023-08-08T03:16:59;32.17;;;18.40;;
57828;SDS011;43657;52.698;6.314;2023-08-08T03:19:25;26.58;;;17.70;;
57828;SDS011;43657;52.698;6.314;2023-08-08T03:21:51;26.92;;;17.30;;
57828;SDS011;43657;52.698;6.314;2023-08-08T03:24:16;18.88;;;16.33;;
57828;SDS011;43657;52.698;6.314;2023-08-08T03:26:42;22.38;;;17.02;;
57828;SDS011;43657;52.698;6.314;2023-08-08T03:29:08;22.92;;;16.60;;
57828;SDS011;43657;52.698;6.314;2023-08-08T03:31:35;22.55;;;14.90;;
57828;SDS011;43657;52.698;6.314;2023-08-08T03:34:01;21.95;;;15.90;;
57828;SDS011;43657;52.698;6.314;2023-08-08T03:36:27;25.92;;;16.50;;
57828;SDS011;43657;52.698;6.314;2023-08-08T03:38:52;16.20;;;14.05;;
57828;SDS011;43657;52.698;6.314;2023-08-08T03:41:18;20.83;;;14.57;;
57828;SDS011;43657;52.698;6.314;2023-08-08T03:43:44;28.77;;;18.33;;
57828;SDS011;43657;52.698;6.314;2023-08-08T03:46:10;22.98;;;15.88;;
57828;SDS011;43657;52.698;6.314;2023-08-08T03:48:36;25.25;;;17.08;;
57828;SDS011;43657;52.698;6.314;2023-08-08T03:51:02;20.88;;;14.68;;
57828;SDS011;43657;52.698;6.314;2023-08-08T03:53:28;16.85;;;13.55;;
57828;SDS011;43657;52.698;6.314;2023-08-08T03:55:54;23.80;;;15.27;;
57828;SDS011;43657;52.698;6.314;2023-08-08T03:58:20;23.92;;;15.07;;
57828;SDS011;43657;52.698;6.314;2023-08-08T04:00:45;18.95;;;13.25;;
57828;SDS011;43657;52.698;6.314;2023-08-08T04:03:14;18.50;;;12.43;;
57828;SDS011;43657;52.698;6.314;2023-08-08T04:05:43;21.15;;;14.90;;
57828;SDS011;43657;52.698;6.314;2023-08-08T04:08:11;19.02;;;11.88;;
57828;SDS011;43657;52.698;6.314;2023-08-08T04:10:37;18.58;;;11.60;;
57828;SDS011;43657;52.698;6.314;2023-08-08T04:13:02;17.70;;;10.15;;
57828;SDS011;43657;52.698;6.314;2023-08-08T04:15:28;19.65;;;11.25;;
57828;SDS011;43657;52.698;6.314;2023-08-08T04:17:54;14.57;;;8.73;;
57828;SDS011;43657;52.698;6.314;2023-08-08T04:20:20;16.95;;;8.70;;
57828;SDS011;43657;52.698;6.314;2023-08-08T04:22:45;14.38;;;8.18;;
57828;SDS011;43657;52.698;6.314;2023-08-08T04:25:11;18.95;;;7.25;;
57828;SDS011;43657;52.698;6.314;2023-08-08T04:27:37;16.85;;;8.48;;
57828;SDS011;43657;52.698;6.314;2023-08-08T04:30:02;14.48;;;7.65;;
57828;SDS011;43657;52.698;6.314;2023-08-08T04:32:29;16.55;;;7.05;;
57828;SDS011;43657;52.698;6.314;2023-08-08T04:34:55;13.80;;;7.07;;
57828;SDS011;43657;52.698;6.314;2023-08-08T04:37:21;12.70;;;6.32;;
57828;SDS011;43657;52.698;6.314;2023-08-08T04:39:46;11.57;;;4.93;;
57828;SDS011;43657;52.698;6.314;2023-08-08T04:42:12;12.88;;;5.57;;
57828;SDS011;43657;52.698;6.314;2023-08-08T04:44:37;11.35;;;5.57;;
57828;SDS011;43657;52.698;6.314;2023-08-08T04:47:04;10.23;;;5.00;;
57828;SDS011;43657;52.698;6.314;2023-08-08T04:49:30;12.18;;;5.63;;
57828;SDS011;43657;52.698;6.314;2023-08-08T04:51:55;10.77;;;5.00;;
57828;SDS011;43657;52.698;6.314;2023-08-08T04:54:21;12.10;;;4.68;;
57828;SDS011;43657;52.698;6.314;2023-08-08T04:56:46;10.68;;;4.72;;
57828;SDS011;43657;52.698;6.314;2023-08-08T04:59:12;14.77;;;5.38;;
57828;SDS011;43657;52.698;6.314;2023-08-08T05:01:37;10.02;;;5.32;;
57828;SDS011;43657;52.698;6.314;2023-08-08T05:04:03;9.07;;;4.68;;
57828;SDS011;43657;52.698;6.314;2023-08-08T05:06:29;12.48;;;4.95;;
57828;SDS011;43657;52.698;6.314;2023-08-08T05:08:55;9.52;;;4.53;;
57828;SDS011;43657;52.698;6.314;2023-08-08T05:11:21;10.80;;;4.22;;
57828;SDS011;43657;52.698;6.314;2023-08-08T05:13:47;10.65;;;4.25;;
57828;SDS011;43657;52.698;6.314;2023-08-08T05:16:13;10.32;;;4.75;;
57828;SDS011;43657;52.698;6.314;2023-08-08T05:18:39;9.73;;;4.45;;
57828;SDS011;43657;52.698;6.314;2023-08-08T05:21:05;11.95;;;4.57;;
57828;SDS011;43657;52.698;6.314;2023-08-08T05:23:31;11.95;;;4.85;;
57828;SDS011;43657;52.698;6.314;2023-08-08T05:25:57;9.32;;;4.15;;
57828;SDS011;43657;52.698;6.314;2023-08-08T05:28:22;11.65;;;3.65;;
57828;SDS011;43657;52.698;6.314;2023-08-08T05:30:48;10.60;;;3.75;;
57828;SDS011;43657;52.698;6.314;2023-08-08T05:33:13;6.43;;;3.70;;
57828;SDS011;43657;52.698;6.314;2023-08-08T05:35:39;8.63;;;4.05;;
57828;SDS011;43657;52.698;6.314;2023-08-08T05:38:05;9.57;;;3.63;;
57828;SDS011;43657;52.698;6.314;2023-08-08T05:40:30;9.38;;;3.28;;
57828;SDS011;43657;52.698;6.314;2023-08-08T05:42:58;11.98;;;3.28;;
57828;SDS011;43657;52.698;6.314;2023-08-08T05:45:24;8.32;;;3.60;;
57828;SDS011;43657;52.698;6.314;2023-08-08T05:47:50;8.57;;;3.30;;
57828;SDS011;43657;52.698;6.314;2023-08-08T05:50:15;7.53;;;3.38;;
57828;SDS011;43657;52.698;6.314;2023-08-08T05:52:41;7.68;;;3.15;;
57828;SDS011;43657;52.698;6.314;2023-08-08T05:55:07;9.32;;;3.17;;
57828;SDS011;43657;52.698;6.314;2023-08-08T05:57:32;8.45;;;3.15;;
57828;SDS011;43657;52.698;6.314;2023-08-08T05:59:58;11.00;;;3.40;;
57828;SDS011;43657;52.698;6.314;2023-08-08T06:02:24;8.65;;;3.15;;
57828;SDS011;43657;52.698;6.314;2023-08-08T06:04:49;8.68;;;3.35;;
57828;SDS011;43657;52.698;6.314;2023-08-08T06:07:15;7.90;;;3.42;;
57828;SDS011;43657;52.698;6.314;2023-08-08T06:09:40;8.52;;;3.45;;
57828;SDS011;43657;52.698;6.314;2023-08-08T06:12:06;11.15;;;3.38;;
57828;SDS011;43657;52.698;6.314;2023-08-08T06:14:32;8.43;;;2.60;;
57828;SDS011;43657;52.698;6.314;2023-08-08T06:16:57;7.45;;;2.30;;
57828;SDS011;43657;52.698;6.314;2023-08-08T06:19:23;9.20;;;2.70;;
57828;SDS011;43657;52.698;6.314;2023-08-08T06:21:49;10.73;;;2.45;;
57828;SDS011;43657;52.698;6.314;2023-08-08T06:24:15;6.03;;;2.50;;
57828;SDS011;43657;52.698;6.314;2023-08-08T06:26:40;9.65;;;2.50;;
57828;SDS011;43657;52.698;6.314;2023-08-08T06:29:06;8.35;;;2.45;;
57828;SDS011;43657;52.698;6.314;2023-08-08T06:31:32;9.98;;;2.70;;
57828;SDS011;43657;52.698;6.314;2023-08-08T06:33:57;9.05;;;2.25;;
57828;SDS011;43657;52.698;6.314;2023-08-08T06:36:23;11.07;;;3.00;;
57828;SDS011;43657;52.698;6.314;2023-08-08T06:38:48;8.13;;;2.30;;
57828;SDS011;43657;52.698;6.314;2023-08-08T06:41:14;6.97;;;2.38;;
57828;SDS011;43657;52.698;6.314;2023-08-08T06:43:40;7.35;;;2.20;;
57828;SDS011;43657;52.698;6.314;2023-08-08T06:46:05;8.02;;;2.30;;
57828;SDS011;43657;52.698;6.314;2023-08-08T06:48:31;7.90;;;2.67;;
57828;SDS011;43657;52.698;6.314;2023-08-08T06:50:56;8.82;;;2.60;;
57828;SDS011;43657;52.698;6.314;2023-08-08T06:53:22;6.75;;;2.42;;
57828;SDS011;43657;52.698;6.314;2023-08-08T06:55:48;7.10;;;1.90;;
57828;SDS011;43657;52.698;6.314;2023-08-08T06:58:13;6.05;;;2.00;;
57828;SDS011;43657;52.698;6.314;2023-08-08T07:00:39;7.55;;;1.70;;
57828;SDS011;43657;52.698;6.314;2023-08-08T07:03:05;5.07;;;1.70;;
57828;SDS011;43657;52.698;6.314;2023-08-08T07:05:31;8.32;;;2.22;;
57828;SDS011;43657;52.698;6.314;2023-08-08T07:07:57;6.68;;;1.83;;
57828;SDS011;43657;52.698;6.314;2023-08-08T07:10:22;9.73;;;2.33;;
57828;SDS011;43657;52.698;6.314;2023-08-08T07:12:48;7.22;;;2.53;;
57828;SDS011;43657;52.698;6.314;2023-08-08T07:15:14;8.05;;;2.00;;
57828;SDS011;43657;52.698;6.314;2023-08-08T07:17:40;10.07;;;2.10;;
57828;SDS011;43657;52.698;6.314;2023-08-08T07:20:06;7.53;;;1.90;;
57828;SDS011;43657;52.698;6.314;2023-08-08T07:22:32;7.70;;;2.55;;
57828;SDS011;43657;52.698;6.314;2023-08-08T07:24:58;5.80;;;1.85;;
57828;SDS011;43657;52.698;6.314;2023-08-08T07:27:25;5.55;;;2.33;;
57828;SDS011;43657;52.698;6.314;2023-08-08T07:29:51;7.07;;;1.70;;
57828;SDS011;43657;52.698;6.314;2023-08-08T07:32:17;8.20;;;2.35;;
57828;SDS011;43657;52.698;6.314;2023-08-08T07:34:42;5.30;;;1.95;;
57828;SDS011;43657;52.698;6.314;2023-08-08T07:37:08;6.65;;;2.00;;
57828;SDS011;43657;52.698;6.314;2023-08-08T07:39:34;7.80;;;1.70;;
57828;SDS011;43657;52.698;6.314;2023-08-08T07:41:59;10.50;;;2.00;;
57828;SDS011;43657;52.698;6.314;2023-08-08T07:44:25;7.82;;;1.92;;
57828;SDS011;43657;52.698;6.314;2023-08-08T07:46:51;5.45;;;1.85;;
57828;SDS011;43657;52.698;6.314;2023-08-08T07:49:16;6.35;;;1.83;;
57828;SDS011;43657;52.698;6.314;2023-08-08T07:51:42;5.75;;;1.80;;
57828;SDS011;43657;52.698;6.314;2023-08-08T07:54:08;6.80;;;1.80;;
57828;SDS011;43657;52.698;6.314;2023-08-08T07:56:35;4.43;;;1.63;;
57828;SDS011;43657;52.698;6.314;2023-08-08T07:59:01;3.05;;;1.40;;
57828;SDS011;43657;52.698;6.314;2023-08-08T08:01:28;3.63;;;1.38;;
57828;SDS011;43657;52.698;6.314;2023-08-08T08:03:54;4.93;;;1.52;;
57828;SDS011;43657;52.698;6.314;2023-08-08T08:06:19;5.72;;;1.60;;
57828;SDS011;43657;52.698;6.314;2023-08-08T08:08:45;4.00;;;1.40;;
57828;SDS011;43657;52.698;6.314;2023-08-08T08:11:10;3.55;;;1.25;;
57828;SDS011;43657;52.698;6.314;2023-08-08T08:13:38;3.47;;;1.30;;
57828;SDS011;43657;52.698;6.314;2023-08-08T08:16:04;5.32;;;1.65;;
57828;SDS011;43657;52.698;6.314;2023-08-08T08:18:30;5.07;;;1.40;;
57828;SDS011;43657;52.698;6.314;2023-08-08T08:20:57;6.78;;;1.70;;
57828;SDS011;43657;52.698;6.314;2023-08-08T08:23:22;4.40;;;1.25;;
57828;SDS011;43657;52.698;6.314;2023-08-08T08:25:48;6.65;;;1.42;;
57828;SDS011;43657;52.698;6.314;2023-08-08T08:28:15;5.18;;;1.52;;
57828;SDS011;43657;52.698;6.314;2023-08-08T08:30:41;3.95;;;1.50;;
57828;SDS011;43657;52.698;6.314;2023-08-08T08:33:07;3.72;;;1.70;;
57828;SDS011;43657;52.698;6.314;2023-08-08T08:35:33;2.90;;;1.25;;
57828;SDS011;43657;52.698;6.314;2023-08-08T08:37:59;6.78;;;1.83;;
57828;SDS011;43657;52.698;6.314;2023-08-08T08:40:25;4.50;;;1.40;;
57828;SDS011;43657;52.698;6.314;2023-08-08T08:42:53;4.28;;;1.40;;
57828;SDS011;43657;52.698;6.314;2023-08-08T08:45:19;4.97;;;1.30;;
57828;SDS011;43657;52.698;6.314;2023-08-08T08:47:46;5.05;;;1.45;;
57828;SDS011;43657;52.698;6.314;2023-08-08T08:50:14;3.53;;;1.25;;
57828;SDS011;43657;52.698;6.314;2023-08-08T08:52:41;5.60;;;1.30;;
57828;SDS011;43657;52.698;6.314;2023-08-08T08:55:07;5.55;;;1.40;;
57828;SDS011;43657;52.698;6.314;2023-08-08T08:57:33;4.13;;;1.35;;
57828;SDS011;43657;52.698;6.314;2023-08-08T09:00:00;4.68;;;1.40;;
57828;SDS011;43657;52.698;6.314;2023-08-08T09:02:26;4.88;;;1.55;;
57828;SDS011;43657;52.698;6.314;2023-08-08T09:04:52;4.53;;;1.52;;
57828;SDS011;43657;52.698;6.314;2023-08-08T09:07:19;6.38;;;1.77;;
57828;SDS011;43657;52.698;6.314;2023-08-08T09:09:47;5.00;;;1.45;;
57828;SDS011;43657;52.698;6.314;2023-08-08T09:12:13;4.20;;;1.30;;
57828;SDS011;43657;52.698;6.314;2023-08-08T09:14:40;4.70;;;1.35;;
57828;SDS011;43657;52.698;6.314;2023-08-08T09:17:10;4.47;;;1.25;;
57828;SDS011;43657;52.698;6.314;2023-08-08T09:19:38;4.45;;;1.05;;
57828;SDS011;43657;52.698;6.314;2023-08-08T09:22:04;4.82;;;1.40;;
57828;SDS011;43657;52.698;6.314;2023-08-08T09:24:30;4.63;;;1.30;;
57828;SDS011;43657;52.698;6.314;2023-08-08T09:26:56;5.35;;;1.40;;
57828;SDS011;43657;52.698;6.314;2023-08-08T09:29:21;5.57;;;1.20;;
57828;SDS011;43657;52.698;6.314;2023-08-08T09:31:47;4.50;;;1.35;;
57828;SDS011;43657;52.698;6.314;2023-08-08T09:34:14;5.68;;;1.30;;
57828;SDS011;43657;52.698;6.314;2023-08-08T09:36:39;3.78;;;1.25;;
57828;SDS011;43657;52.698;6.314;2023-08-08T09:39:05;6.28;;;1.40;;
57828;SDS011;43657;52.698;6.314;2023-08-08T09:41:32;4.15;;;1.23;;
57828;SDS011;43657;52.698;6.314;2023-08-08T09:43:58;5.32;;;1.38;;
57828;SDS011;43657;52.698;6.314;2023-08-08T09:46:24;5.13;;;1.55;;
57828;SDS011;43657;52.698;6.314;2023-08-08T09:48:50;5.20;;;1.52;;
57828;SDS011;43657;52.698;6.314;2023-08-08T09:51:17;4.07;;;1.30;;
57828;SDS011;43657;52.698;6.314;2023-08-08T09:53:44;4.28;;;1.23;;
57828;SDS011;43657;52.698;6.314;2023-08-08T09:56:12;4.25;;;1.35;;
57828;SDS011;43657;52.698;6.314;2023-08-08T09:58:39;6.32;;;1.40;;
57828;SDS011;43657;52.698;6.314;2023-08-08T10:01:05;5.60;;;1.55;;
57828;SDS011;43657;52.698;6.314;2023-08-08T10:03:31;6.35;;;1.80;;
57828;SDS011;43657;52.698;6.314;2023-08-08T10:05:58;3.83;;;1.35;;
57828;SDS011;43657;52.698;6.314;2023-08-08T10:08:24;4.90;;;1.58;;
57828;SDS011;43657;52.698;6.314;2023-08-08T10:10:50;2.90;;;1.20;;
57828;SDS011;43657;52.698;6.314;2023-08-08T10:13:20;5.13;;;1.50;;
57828;SDS011;43657;52.698;6.314;2023-08-08T10:15:47;4.63;;;1.40;;
57828;SDS011;43657;52.698;6.314;2023-08-08T10:18:13;3.33;;;1.40;;
57828;SDS011;43657;52.698;6.314;2023-08-08T10:20:41;4.30;;;1.30;;
57828;SDS011;43657;52.698;6.314;2023-08-08T10:23:09;3.53;;;1.23;;
57828;SDS011;43657;52.698;6.314;2023-08-08T10:25:35;4.90;;;1.48;;
57828;SDS011;43657;52.698;6.314;2023-08-08T10:28:05;4.95;;;1.42;;
57828;SDS011;43657;52.698;6.314;2023-08-08T10:30:55;3.75;;;1.80;;
57828;SDS011;43657;52.698;6.314;2023-08-08T10:33:20;3.50;;;1.60;;
57828;SDS011;43657;52.698;6.314;2023-08-08T10:38:22;3.75;;;1.55;;
57828;SDS011;43657;52.698;6.314;2023-08-08T10:40:53;5.13;;;1.67;;
57828;SDS011;43657;52.698;6.314;2023-08-08T10:43:28;6.22;;;2.00;;
57828;SDS011;43657;52.698;6.314;2023-08-08T10:45:58;4.60;;;1.83;;
57828;SDS011;43657;52.698;6.314;2023-08-08T10:48:25;3.97;;;1.70;;
57828;SDS011;43657;52.698;6.314;2023-08-08T10:50:53;3.88;;;1.83;;
57828;SDS011;43657;52.698;6.314;2023-08-08T10:53:30;3.65;;;1.65;;
57828;SDS011;43657;52.698;6.314;2023-08-08T10:55:59;4.60;;;1.40;;
57828;SDS011;43657;52.698;6.314;2023-08-08T10:58:38;6.10;;;1.40;;
57828;SDS011;43657;52.698;6.314;2023-08-08T11:01:13;5.38;;;1.77;;
57828;SDS011;43657;52.698;6.314;2023-08-08T11:04:07;4.07;;;1.65;;
57828;SDS011;43657;52.698;6.314;2023-08-08T11:06:33;4.35;;;1.52;;
57828;SDS011;43657;52.698;6.314;2023-08-08T11:09:00;4.75;;;1.70;;
57828;SDS011;43657;52.698;6.314;2023-08-08T11:11:26;4.00;;;1.65;;
57828;SDS011;43657;52.698;6.314;2023-08-08T11:13:52;5.63;;;1.90;;
57828;SDS011;43657;52.698;6.314;2023-08-08T11:16:18;5.40;;;1.90;;
57828;SDS011;43657;52.698;6.314;2023-08-08T11:18:45;4.43;;;1.70;;
57828;SDS011;43657;52.698;6.314;2023-08-08T11:21:10;4.68;;;1.92;;
57828;SDS011;43657;52.698;6.314;2023-08-08T11:23:36;6.28;;;1.90;;
57828;SDS011;43657;52.698;6.314;2023-08-08T11:26:04;4.53;;;1.75;;
57828;SDS011;43657;52.698;6.314;2023-08-08T11:28:32;5.68;;;1.77;;
57828;SDS011;43657;52.698;6.314;2023-08-08T11:30:58;5.45;;;2.00;;
57828;SDS011;43657;52.698;6.314;2023-08-08T11:33:24;4.97;;;1.77;;
57828;SDS011;43657;52.698;6.314;2023-08-08T11:35:50;6.45;;;2.10;;
57828;SDS011;43657;52.698;6.314;2023-08-08T11:38:17;4.10;;;1.90;;
57828;SDS011;43657;52.698;6.314;2023-08-08T11:40:43;5.50;;;2.38;;
57828;SDS011;43657;52.698;6.314;2023-08-08T11:43:12;5.43;;;2.60;;
57828;SDS011;43657;52.698;6.314;2023-08-08T11:45:42;4.88;;;2.80;;
57828;SDS011;43657;52.698;6.314;2023-08-08T11:48:10;5.38;;;2.85;;
57828;SDS011;43657;52.698;6.314;2023-08-08T11:50:36;6.60;;;2.80;;
57828;SDS011;43657;52.698;6.314;2023-08-08T11:53:03;3.83;;;1.90;;
57828;SDS011;43657;52.698;6.314;2023-08-08T11:55:29;5.50;;;2.10;;
57828;SDS011;43657;52.698;6.314;2023-08-08T11:57:55;4.55;;;2.15;;
57828;SDS011;43657;52.698;6.314;2023-08-08T12:00:27;4.72;;;2.20;;
57828;SDS011;43657;52.698;6.314;2023-08-08T12:02:55;5.75;;;1.92;;
57828;SDS011;43657;52.698;6.314;2023-08-08T12:05:21;5.15;;;2.05;;
57828;SDS011;43657;52.698;6.314;2023-08-08T12:07:47;6.30;;;1.73;;
57828;SDS011;43657;52.698;6.314;2023-08-08T12:10:18;5.00;;;1.70;;
57828;SDS011;43657;52.698;6.314;2023-08-08T12:12:52;7.05;;;2.17;;
57828;SDS011;43657;52.698;6.314;2023-08-08T12:15:20;4.68;;;2.00;;
57828;SDS011;43657;52.698;6.314;2023-08-08T12:17:46;5.47;;;2.00;;
57828;SDS011;43657;52.698;6.314;2023-08-08T12:20:13;5.20;;;1.95;;
57828;SDS011;43657;52.698;6.314;2023-08-08T12:22:40;4.43;;;1.70;;
57828;SDS011;43657;52.698;6.314;2023-08-08T12:25:11;4.57;;;1.75;;
57828;SDS011;43657;52.698;6.314;2023-08-08T12:27:37;4.07;;;1.42;;
57828;SDS011;43657;52.698;6.314;2023-08-08T12:30:06;5.22;;;1.73;;
57828;SDS011;43657;52.698;6.314;2023-08-08T12:32:38;3.40;;;1.65;;
57828;SDS011;43657;52.698;6.314;2023-08-08T12:35:03;4.10;;;1.75;;
57828;SDS011;43657;52.698;6.314;2023-08-08T12:37:32;4.13;;;1.80;;
57828;SDS011;43657;52.698;6.314;2023-08-08T12:39:58;4.03;;;1.52;;
57828;SDS011;43657;52.698;6.314;2023-08-08T12:42:24;4.28;;;1.70;;
57828;SDS011;43657;52.698;6.314;2023-08-08T12:44:50;3.60;;;1.63;;
57828;SDS011;43657;52.698;6.314;2023-08-08T12:47:18;5.22;;;1.50;;
57828;SDS011;43657;52.698;6.314;2023-08-08T12:49:46;6.63;;;1.73;;
57828;SDS011;43657;52.698;6.314;2023-08-08T12:52:14;22.08;;;2.92;;
57828;SDS011;43657;52.698;6.314;2023-08-08T12:54:40;7.93;;;2.13;;
57828;SDS011;43657;52.698;6.314;2023-08-08T12:57:06;6.60;;;1.90;;
57828;SDS011;43657;52.698;6.314;2023-08-08T12:59:32;7.38;;;2.40;;
57828;SDS011;43657;52.698;6.314;2023-08-08T13:01:57;5.18;;;1.80;;
57828;SDS011;43657;52.698;6.314;2023-08-08T13:04:23;4.35;;;2.00;;
57828;SDS011;43657;52.698;6.314;2023-08-08T13:06:50;4.65;;;2.25;;
57828;SDS011;43657;52.698;6.314;2023-08-08T13:09:16;4.97;;;2.13;;
57828;SDS011;43657;52.698;6.314;2023-08-08T13:11:42;4.10;;;2.13;;
57828;SDS011;43657;52.698;6.314;2023-08-08T13:14:07;7.47;;;2.40;;
57828;SDS011;43657;52.698;6.314;2023-08-08T13:16:33;5.65;;;2.38;;
57828;SDS011;43657;52.698;6.314;2023-08-08T13:18:59;8.88;;;2.70;;
57828;SDS011;43657;52.698;6.314;2023-08-08T13:21:25;6.32;;;2.20;;
57828;SDS011;43657;52.698;6.314;2023-08-08T13:23:52;4.30;;;2.25;;
57828;SDS011;43657;52.698;6.314;2023-08-08T13:26:21;6.05;;;2.20;;
57828;SDS011;43657;52.698;6.314;2023-08-08T13:28:49;6.25;;;2.20;;
57828;SDS011;43657;52.698;6.314;2023-08-08T13:31:18;5.28;;;2.10;;
57828;SDS011;43657;52.698;6.314;2023-08-08T13:33:44;5.15;;;2.55;;
57828;SDS011;43657;52.698;6.314;2023-08-08T13:36:09;6.88;;;2.78;;
57828;SDS011;43657;52.698;6.314;2023-08-08T13:38:36;5.80;;;2.22;;
57828;SDS011;43657;52.698;6.314;2023-08-08T13:41:01;4.35;;;2.20;;
57828;SDS011;43657;52.698;6.314;2023-08-08T13:43:27;4.15;;;1.50;;
57828;SDS011;43657;52.698;6.314;2023-08-08T13:45:55;5.43;;;1.58;;
57828;SDS011;43657;52.698;6.314;2023-08-08T13:48:20;2.92;;;1.70;;
57828;SDS011;43657;52.698;6.314;2023-08-08T13:50:46;3.40;;;1.40;;
57828;SDS011;43657;52.698;6.314;2023-08-08T13:53:13;2.60;;;1.30;;
57828;SDS011;43657;52.698;6.314;2023-08-08T13:55:39;4.40;;;1.50;;
57828;SDS011;43657;52.698;6.314;2023-08-08T13:58:05;2.78;;;1.40;;
57828;SDS011;43657;52.698;6.314;2023-08-08T14:00:31;5.63;;;1.70;;
57828;SDS011;43657;52.698;6.314;2023-08-08T14:02:58;4.20;;;1.60;;
57828;SDS011;43657;52.698;6.314;2023-08-08T14:05:24;6.05;;;2.03;;
57828;SDS011;43657;52.698;6.314;2023-08-08T14:07:50;5.93;;;1.70;;
57828;SDS011;43657;52.698;6.314;2023-08-08T14:10:15;4.70;;;1.55;;
57828;SDS011;43657;52.698;6.314;2023-08-08T14:12:46;3.58;;;1.60;;
57828;SDS011;43657;52.698;6.314;2023-08-08T14:15:13;5.03;;;1.80;;
57828;SDS011;43657;52.698;6.314;2023-08-08T14:17:39;5.03;;;1.50;;
57828;SDS011;43657;52.698;6.314;2023-08-08T14:20:08;7.72;;;2.22;;
57828;SDS011;43657;52.698;6.314;2023-08-08T14:22:44;3.30;;;2.08;;
57828;SDS011;43657;52.698;6.314;2023-08-08T14:25:11;4.65;;;1.80;;
57828;SDS011;43657;52.698;6.314;2023-08-08T14:27:38;4.28;;;1.80;;
57828;SDS011;43657;52.698;6.314;2023-08-08T14:30:09;3.25;;;1.70;;
57828;SDS011;43657;52.698;6.314;2023-08-08T14:32:38;5.97;;;2.00;;
57828;SDS011;43657;52.698;6.314;2023-08-08T14:35:05;4.72;;;2.00;;
57828;SDS011;43657;52.698;6.314;2023-08-08T14:37:38;3.63;;;1.67;;
57828;SDS011;43657;52.698;6.314;2023-08-08T14:40:05;3.53;;;1.55;;